sensor_id;sensor_type;location;lat;lon;timestamp;pressure;altitude;pressure_sealevel;temperature;humidity
36260;BME280;22296;50.824;5.644;2023-09-19T00:00:47;100061.91;;;23.31;55.80
36260;BME280;22296;50.824;5.644;2023-09-19T00:03:15;100064.31;;;23.28;55.92
36260;BME280;22296;50.824;5.644;2023-09-19T00:05:43;100079.59;;;23.31;55.66
36260;BME280;22296;50.824;5.644;2023-09-19T00:08:13;100075.56;;;23.28;55.75
36260;BME280;22296;50.824;5.644;2023-09-19T00:10:40;100082.38;;;23.27;56.09
36260;BME280;22296;50.824;5.644;2023-09-19T00:13:09;100083.19;;;23.28;55.91
36260;BME280;22296;50.824;5.644;2023-09-19T00:15:43;100079.56;;;23.27;56.03
36260;BME280;22296;50.824;5.644;2023-09-19T00:18:12;100090.81;;;23.27;55.68
36260;BME280;22296;50.824;5.644;2023-09-19T00:20:42;100086.81;;;23.28;55.75
36260;BME280;22296;50.824;5.644;2023-09-19T00:23:08;100094.03;;;23.26;56.14
36260;BME280;22296;50.824;5.644;2023-09-19T00:25:39;100094.44;;;23.24;56.22
36260;BME280;22296;50.824;5.644;2023-09-19T00:28:06;100096.44;;;23.20;56.10
36260;BME280;22296;50.824;5.644;2023-09-19T00:30:34;100103.66;;;23.18;55.71
36260;BME280;22296;50.824;5.644;2023-09-19T00:33:01;100103.66;;;23.18;55.40
36260;BME280;22296;50.824;5.644;2023-09-19T00:35:33;100105.25;;;23.15;55.49
36260;BME280;22296;50.824;5.644;2023-09-19T00:38:00;100115.66;;;23.11;55.51
36260;BME280;22296;50.824;5.644;2023-09-19T00:40:27;100116.47;;;23.12;55.47
36260;BME280;22296;50.824;5.644;2023-09-19T00:42:57;100109.22;;;23.11;55.66
36260;BME280;22296;50.824;5.644;2023-09-19T00:45:27;100115.25;;;23.09;55.51
36260;BME280;22296;50.824;5.644;2023-09-19T00:47:55;100126.88;;;23.08;55.32
36260;BME280;22296;50.824;5.644;2023-09-19T00:50:25;100124.47;;;23.06;55.42
36260;BME280;22296;50.824;5.644;2023-09-19T00:52:54;100134.91;;;23.06;55.30
36260;BME280;22296;50.824;5.644;2023-09-19T00:55:25;100130.09;;;23.06;55.24
36260;BME280;22296;50.824;5.644;2023-09-19T00:57:55;100140.50;;;23.02;55.51
36260;BME280;22296;50.824;5.644;2023-09-19T01:00:23;100138.13;;;23.04;55.10
36260;BME280;22296;50.824;5.644;2023-09-19T01:02:51;100143.75;;;23.04;55.43
36260;BME280;22296;50.824;5.644;2023-09-19T01:05:18;100148.94;;;23.02;55.48
36260;BME280;22296;50.824;5.644;2023-09-19T01:07:46;100142.91;;;23.00;55.55
36260;BME280;22296;50.824;5.644;2023-09-19T01:10:18;100150.13;;;22.98;54.80
36260;BME280;22296;50.824;5.644;2023-09-19T01:15:49;100157.75;;;22.97;55.24
36260;BME280;22296;50.824;5.644;2023-09-19T01:23:56;100165.78;;;22.95;55.38
36260;BME280;22296;50.824;5.644;2023-09-19T01:29:46;100180.63;;;22.92;55.14
36260;BME280;22296;50.824;5.644;2023-09-19T01:32:16;100181.41;;;22.89;55.25
36260;BME280;22296;50.824;5.644;2023-09-19T01:34:55;100175.78;;;22.89;55.29
36260;BME280;22296;50.824;5.644;2023-09-19T01:37:25;100176.56;;;22.86;55.39
36260;BME280;22296;50.824;5.644;2023-09-19T01:40:04;100181.78;;;22.88;55.51
36260;BME280;22296;50.824;5.644;2023-09-19T01:42:53;100176.56;;;22.86;55.36
36260;BME280;22296;50.824;5.644;2023-09-19T01:48:46;100185.41;;;22.88;55.73
36260;BME280;22296;50.824;5.644;2023-09-19T01:51:24;100174.53;;;22.83;55.59
36260;BME280;22296;50.824;5.644;2023-09-19T01:54:00;100177.34;;;22.83;55.28
36260;BME280;22296;50.824;5.644;2023-09-19T01:56:47;100180.53;;;22.78;55.38
36260;BME280;22296;50.824;5.644;2023-09-19T01:59:24;100182.13;;;22.79;55.67
36260;BME280;22296;50.824;5.644;2023-09-19T02:01:55;100177.28;;;22.76;55.55
36260;BME280;22296;50.824;5.644;2023-09-19T02:04:23;100181.72;;;22.77;55.36
36260;BME280;22296;50.824;5.644;2023-09-19T02:06:50;100174.09;;;22.78;55.44
36260;BME280;22296;50.824;5.644;2023-09-19T02:09:18;100176.09;;;22.77;55.27
36260;BME280;22296;50.824;5.644;2023-09-19T02:11:45;100176.88;;;22.74;55.45
36260;BME280;22296;50.824;5.644;2023-09-19T02:14:13;100176.44;;;22.72;55.42
36260;BME280;22296;50.824;5.644;2023-09-19T02:16:40;100180.44;;;22.71;55.41
36260;BME280;22296;50.824;5.644;2023-09-19T02:19:09;100174.41;;;22.69;55.14
36260;BME280;22296;50.824;5.644;2023-09-19T02:21:35;100174.00;;;22.67;55.00
36260;BME280;22296;50.824;5.644;2023-09-19T02:24:03;100166.78;;;22.69;55.00
36260;BME280;22296;50.824;5.644;2023-09-19T02:26:30;100174.00;;;22.67;55.13
36260;BME280;22296;50.824;5.644;2023-09-19T02:28:58;100170.75;;;22.65;55.00
36260;BME280;22296;50.824;5.644;2023-09-19T02:31:26;100165.13;;;22.65;55.21
36260;BME280;22296;50.824;5.644;2023-09-19T02:33:55;100166.69;;;22.62;54.99
36260;BME280;22296;50.824;5.644;2023-09-19T02:36:23;100176.31;;;22.58;54.75
36260;BME280;22296;50.824;5.644;2023-09-19T02:38:50;100166.66;;;22.59;54.49
36260;BME280;22296;50.824;5.644;2023-09-19T02:41:16;100172.28;;;22.59;54.56
36260;BME280;22296;50.824;5.644;2023-09-19T02:43:43;100163.44;;;22.57;54.88
36260;BME280;22296;50.824;5.644;2023-09-19T02:46:10;100176.31;;;22.58;54.70
36260;BME280;22296;50.824;5.644;2023-09-19T02:48:38;100176.25;;;22.54;55.00
36260;BME280;22296;50.824;5.644;2023-09-19T02:51:05;100182.69;;;22.55;54.64
36260;BME280;22296;50.824;5.644;2023-09-19T02:53:32;100177.84;;;22.52;54.43
36260;BME280;22296;50.824;5.644;2023-09-19T02:55:59;100175.03;;;22.52;54.58
36260;BME280;22296;50.824;5.644;2023-09-19T02:58:26;100183.47;;;22.52;54.64
36260;BME280;22296;50.824;5.644;2023-09-19T03:00:54;100183.06;;;22.50;54.57
36260;BME280;22296;50.824;5.644;2023-09-19T03:03:23;100184.66;;;22.51;54.59
36260;BME280;22296;50.824;5.644;2023-09-19T03:05:50;100182.19;;;22.46;54.86
36260;BME280;22296;50.824;5.644;2023-09-19T03:08:21;100183.38;;;22.45;54.55
36260;BME280;22296;50.824;5.644;2023-09-19T03:10:48;100187.41;;;22.47;54.35
36260;BME280;22296;50.824;5.644;2023-09-19T03:13:15;100188.22;;;22.48;54.81
36260;BME280;22296;50.824;5.644;2023-09-19T03:15:42;100190.63;;;22.46;54.93
36260;BME280;22296;50.824;5.644;2023-09-19T03:18:22;100197.03;;;22.43;54.85
36260;BME280;22296;50.824;5.644;2023-09-19T03:20:54;100193.81;;;22.41;54.79
36260;BME280;22296;50.824;5.644;2023-09-19T03:23:28;100192.59;;;22.42;54.56
36260;BME280;22296;50.824;5.644;2023-09-19T03:25:55;100195.41;;;22.42;54.42
36260;BME280;22296;50.824;5.644;2023-09-19T03:28:23;100210.25;;;22.42;54.41
36260;BME280;22296;50.824;5.644;2023-09-19T03:33:27;100206.63;;;22.38;54.31
36260;BME280;22296;50.824;5.644;2023-09-19T03:35:54;100200.19;;;22.38;54.36
36260;BME280;22296;50.824;5.644;2023-09-19T03:38:22;100204.19;;;22.37;54.36
36260;BME280;22296;50.824;5.644;2023-09-19T03:40:49;100205.75;;;22.34;54.47
36260;BME280;22296;50.824;5.644;2023-09-19T03:43:16;100202.09;;;22.30;54.39
36260;BME280;22296;50.824;5.644;2023-09-19T03:45:43;100198.09;;;22.31;54.15
36260;BME280;22296;50.824;5.644;2023-09-19T03:48:12;100196.06;;;22.28;54.46
36260;BME280;22296;50.824;5.644;2023-09-19T03:50:39;100195.25;;;22.28;54.34
36260;BME280;22296;50.824;5.644;2023-09-19T03:53:07;100193.66;;;22.27;54.43
36260;BME280;22296;50.824;5.644;2023-09-19T03:55:34;100188.81;;;22.27;54.45
36260;BME280;22296;50.824;5.644;2023-09-19T03:58:05;100200.88;;;22.28;54.29
36260;BME280;22296;50.824;5.644;2023-09-19T04:00:32;100200.06;;;22.27;54.26
36260;BME280;22296;50.824;5.644;2023-09-19T04:03:04;100205.69;;;22.27;54.16
36260;BME280;22296;50.824;5.644;2023-09-19T04:05:33;100195.25;;;22.28;54.57
36260;BME280;22296;50.824;5.644;2023-09-19T04:08:00;100200.88;;;22.28;54.36
36260;BME280;22296;50.824;5.644;2023-09-19T04:10:27;100186.41;;;22.26;54.40
36260;BME280;22296;50.824;5.644;2023-09-19T04:12:55;100191.22;;;22.25;54.23
36260;BME280;22296;50.824;5.644;2023-09-19T04:15:23;100187.19;;;22.23;54.35
36260;BME280;22296;50.824;5.644;2023-09-19T04:17:53;100196.78;;;22.22;54.11
36260;BME280;22296;50.824;5.644;2023-09-19T04:20:20;100194.75;;;22.19;54.19
36260;BME280;22296;50.824;5.644;2023-09-19T04:22:48;100203.19;;;22.19;53.95
36260;BME280;22296;50.824;5.644;2023-09-19T04:25:16;100201.56;;;22.18;54.17
36260;BME280;22296;50.824;5.644;2023-09-19T04:27:44;100201.56;;;22.18;54.32
36260;BME280;22296;50.824;5.644;2023-09-19T04:30:11;100201.56;;;22.18;53.97
36260;BME280;22296;50.824;5.644;2023-09-19T04:32:38;100209.56;;;22.15;53.85
36260;BME280;22296;50.824;5.644;2023-09-19T04:35:10;100214.81;;;22.17;53.89
36260;BME280;22296;50.824;5.644;2023-09-19T04:37:40;100220.78;;;22.15;54.12
36260;BME280;22296;50.824;5.644;2023-09-19T04:40:09;100229.19;;;22.12;54.49
36260;BME280;22296;50.824;5.644;2023-09-19T04:42:40;100232.81;;;22.12;54.32
36260;BME280;22296;50.824;5.644;2023-09-19T04:45:08;100240.03;;;22.13;54.36
36260;BME280;22296;50.824;5.644;2023-09-19T04:47:38;100236.88;;;22.15;54.40
36260;BME280;22296;50.824;5.644;2023-09-19T04:50:09;100235.66;;;22.16;54.46
36260;BME280;22296;50.824;5.644;2023-09-19T04:52:43;100218.44;;;22.18;54.50
36260;BME280;22296;50.824;5.644;2023-09-19T04:55:15;100223.22;;;22.17;54.87
36260;BME280;22296;50.824;5.644;2023-09-19T04:57:48;100244.88;;;22.17;54.73
36260;BME280;22296;50.824;5.644;2023-09-19T05:00:15;100233.66;;;22.17;54.94
36260;BME280;22296;50.824;5.644;2023-09-19T05:02:43;100240.91;;;22.18;55.17
36260;BME280;22296;50.824;5.644;2023-09-19T05:05:10;100240.91;;;22.18;54.95
36260;BME280;22296;50.824;5.644;2023-09-19T05:07:39;100242.91;;;22.17;55.34
36260;BME280;22296;50.824;5.644;2023-09-19T05:10:06;100233.66;;;22.17;55.37
36260;BME280;22296;50.824;5.644;2023-09-19T05:12:36;100241.28;;;22.16;55.66
36260;BME280;22296;50.824;5.644;2023-09-19T05:15:07;100256.13;;;22.17;55.68
36260;BME280;22296;50.824;5.644;2023-09-19T05:17:35;100261.75;;;22.17;55.41
36260;BME280;22296;50.824;5.644;2023-09-19T05:20:03;100260.13;;;22.15;55.77
36260;BME280;22296;50.824;5.644;2023-09-19T05:23:04;100257.69;;;22.14;55.78
36260;BME280;22296;50.824;5.644;2023-09-19T05:25:35;100268.94;;;22.14;55.85
36260;BME280;22296;50.824;5.644;2023-09-19T05:28:06;100274.94;;;22.12;55.82
36260;BME280;22296;50.824;5.644;2023-09-19T05:30:35;100263.72;;;22.12;56.17
36260;BME280;22296;50.824;5.644;2023-09-19T05:33:05;100273.75;;;22.13;55.93
36260;BME280;22296;50.824;5.644;2023-09-19T05:35:32;100265.72;;;22.12;56.14
36260;BME280;22296;50.824;5.644;2023-09-19T05:37:59;100264.91;;;22.11;56.04
36260;BME280;22296;50.824;5.644;2023-09-19T05:40:26;100275.84;;;22.20;56.19
36260;BME280;22296;50.824;5.644;2023-09-19T05:42:54;100281.22;;;22.36;56.29
36260;BME280;22296;50.824;5.644;2023-09-19T05:45:20;100283.72;;;22.41;56.36
36260;BME280;22296;50.824;5.644;2023-09-19T05:47:51;100290.22;;;22.48;56.47
36260;BME280;22296;50.824;5.644;2023-09-19T05:50:20;100280.63;;;22.53;56.27
36260;BME280;22296;50.824;5.644;2023-09-19T05:52:53;100286.28;;;22.56;56.22
36260;BME280;22296;50.824;5.644;2023-09-19T05:55:20;100291.94;;;22.60;55.95
36260;BME280;22296;50.824;5.644;2023-09-19T05:57:51;100290.38;;;22.62;56.35
36260;BME280;22296;50.824;5.644;2023-09-19T06:00:19;100299.25;;;22.64;56.04
36260;BME280;22296;50.824;5.644;2023-09-19T06:02:52;100305.31;;;22.70;56.21
36260;BME280;22296;50.824;5.644;2023-09-19T06:05:20;100296.13;;;22.73;56.23
36260;BME280;22296;50.824;5.644;2023-09-19T06:07:48;100300.97;;;22.76;55.98
36260;BME280;22296;50.824;5.644;2023-09-19T06:10:15;100294.56;;;22.79;56.11
36260;BME280;22296;50.824;5.644;2023-09-19T06:12:43;100294.56;;;22.79;56.34
36260;BME280;22296;50.824;5.644;2023-09-19T06:15:14;100288.19;;;22.82;56.44
36260;BME280;22296;50.824;5.644;2023-09-19T06:17:46;100293.81;;;22.82;56.17
36260;BME280;22296;50.824;5.644;2023-09-19T06:20:12;100290.66;;;22.87;56.27
36260;BME280;22296;50.824;5.644;2023-09-19T06:22:41;100295.06;;;22.88;56.46
36260;BME280;22296;50.824;5.644;2023-09-19T06:25:10;100298.28;;;22.90;56.26
36260;BME280;22296;50.824;5.644;2023-09-19T06:27:50;100292.31;;;22.92;56.13
36260;BME280;22296;50.824;5.644;2023-09-19T06:30:23;100291.91;;;22.93;56.10
36260;BME280;22296;50.824;5.644;2023-09-19T06:32:59;100291.13;;;22.93;56.11
36260;BME280;22296;50.824;5.644;2023-09-19T06:35:28;100287.50;;;22.92;56.32
36260;BME280;22296;50.824;5.644;2023-09-19T06:37:56;100296.41;;;23.01;56.00
36260;BME280;22296;50.824;5.644;2023-09-19T06:40:25;100296.25;;;22.84;56.20
36260;BME280;22296;50.824;5.644;2023-09-19T06:42:53;100286.91;;;22.76;56.41
36260;BME280;22296;50.824;5.644;2023-09-19T06:45:20;100291.72;;;22.72;56.45
36260;BME280;22296;50.824;5.644;2023-09-19T06:47:50;100298.09;;;22.69;56.22
36260;BME280;22296;50.824;5.644;2023-09-19T06:50:21;100297.69;;;22.67;56.49
36260;BME280;22296;50.824;5.644;2023-09-19T06:52:51;100297.25;;;22.65;56.41
36260;BME280;22296;50.824;5.644;2023-09-19T06:55:20;100304.09;;;22.64;56.60
36260;BME280;22296;50.824;5.644;2023-09-19T06:57:48;100300.78;;;22.62;56.36
36260;BME280;22296;50.824;5.644;2023-09-19T07:00:15;100310.44;;;22.61;56.57
36260;BME280;22296;50.824;5.644;2023-09-19T07:05:32;100303.00;;;22.76;56.54
36260;BME280;22296;50.824;5.644;2023-09-19T07:08:00;100312.25;;;22.80;56.59
36260;BME280;22296;50.824;5.644;2023-09-19T07:10:30;100300.28;;;22.86;56.37
36260;BME280;22296;50.824;5.644;2023-09-19T07:12:57;100307.94;;;22.89;56.02
36260;BME280;22296;50.824;5.644;2023-09-19T07:15:26;100313.16;;;22.91;56.02
36260;BME280;22296;50.824;5.644;2023-09-19T07:17:54;100314.00;;;22.91;56.29
36260;BME280;22296;50.824;5.644;2023-09-19T07:20:24;100319.66;;;22.95;56.17
36260;BME280;22296;50.824;5.644;2023-09-19T07:22:53;100326.50;;;22.97;55.92
36260;BME280;22296;50.824;5.644;2023-09-19T07:25:22;100318.88;;;22.98;56.03
36260;BME280;22296;50.824;5.644;2023-09-19T07:27:49;100326.91;;;22.99;56.14
36260;BME280;22296;50.824;5.644;2023-09-19T07:30:18;100322.91;;;23.00;55.86
36260;BME280;22296;50.824;5.644;2023-09-19T07:32:45;100331.78;;;23.02;55.86
36260;BME280;22296;50.824;5.644;2023-09-19T07:35:11;100328.97;;;23.02;55.94
36260;BME280;22296;50.824;5.644;2023-09-19T07:37:38;100323.34;;;23.02;55.51
36260;BME280;22296;50.824;5.644;2023-09-19T07:40:06;100333.41;;;23.03;55.98
36260;BME280;22296;50.824;5.644;2023-09-19T07:42:36;100326.59;;;23.04;55.88
36260;BME280;22296;50.824;5.644;2023-09-19T07:45:08;100322.19;;;23.07;55.89
36260;BME280;22296;50.824;5.644;2023-09-19T07:47:35;100322.19;;;23.07;55.46
36260;BME280;22296;50.824;5.644;2023-09-19T07:50:03;100327.00;;;23.06;55.85
36260;BME280;22296;50.824;5.644;2023-09-19T07:52:30;100319.75;;;23.05;55.59
36260;BME280;22296;50.824;5.644;2023-09-19T07:55:00;100309.25;;;23.02;55.99
36260;BME280;22296;50.824;5.644;2023-09-19T07:57:28;100318.91;;;23.01;55.94
36260;BME280;22296;50.824;5.644;2023-09-19T07:59:55;100313.28;;;23.01;55.67
36260;BME280;22296;50.824;5.644;2023-09-19T08:02:22;100316.03;;;22.94;55.73
36260;BME280;22296;50.824;5.644;2023-09-19T08:04:49;100330.81;;;22.88;56.04
36260;BME280;22296;50.824;5.644;2023-09-19T08:07:18;100325.19;;;22.84;55.75
36260;BME280;22296;50.824;5.644;2023-09-19T08:09:44;100327.53;;;22.82;56.03
36260;BME280;22296;50.824;5.644;2023-09-19T08:12:15;100324.31;;;22.80;55.70
36260;BME280;22296;50.824;5.644;2023-09-19T08:14:42;100322.69;;;22.79;56.12
36260;BME280;22296;50.824;5.644;2023-09-19T08:17:09;100317.06;;;22.76;55.87
36260;BME280;22296;50.824;5.644;2023-09-19T08:19:36;100328.66;;;22.74;56.12
36260;BME280;22296;50.824;5.644;2023-09-19T08:22:03;100329.06;;;22.73;55.80
36260;BME280;22296;50.824;5.644;2023-09-19T08:24:30;100331.44;;;22.70;56.08
36260;BME280;22296;50.824;5.644;2023-09-19T08:26:57;100337.47;;;22.69;55.83
36260;BME280;22296;50.824;5.644;2023-09-19T08:29:25;100333.03;;;22.68;55.84
36260;BME280;22296;50.824;5.644;2023-09-19T08:31:55;100337.81;;;22.64;56.04
36260;BME280;22296;50.824;5.644;2023-09-19T08:34:25;100344.16;;;22.61;56.33
36260;BME280;22296;50.824;5.644;2023-09-19T08:36:53;100342.13;;;22.61;56.31
36260;BME280;22296;50.824;5.644;2023-09-19T08:39:25;100345.94;;;22.76;57.34
36260;BME280;22296;50.824;5.644;2023-09-19T08:41:58;100341.28;;;22.87;58.15
36260;BME280;22296;50.824;5.644;2023-09-19T08:44:26;100346.97;;;22.94;57.66
36260;BME280;22296;50.824;5.644;2023-09-19T08:47:13;100345.34;;;22.93;57.11
36260;BME280;22296;50.824;5.644;2023-09-19T08:49:56;100342.97;;;22.95;57.18
36260;BME280;22296;50.824;5.644;2023-09-19T08:52:41;100354.22;;;22.99;56.85
36260;BME280;22296;50.824;5.644;2023-09-19T08:55:12;100355.50;;;23.01;56.92
36260;BME280;22296;50.824;5.644;2023-09-19T08:57:41;100339.84;;;23.07;57.28
36260;BME280;22296;50.824;5.644;2023-09-19T09:00:11;100342.28;;;23.09;57.33
36260;BME280;22296;50.824;5.644;2023-09-19T09:02:39;100341.88;;;23.10;57.21
36260;BME280;22296;50.824;5.644;2023-09-19T09:05:09;100339.47;;;23.09;57.38
36260;BME280;22296;50.824;5.644;2023-09-19T09:07:41;100337.47;;;23.09;57.22
36260;BME280;22296;50.824;5.644;2023-09-19T09:10:08;100338.28;;;23.10;57.15
36260;BME280;22296;50.824;5.644;2023-09-19T09:12:35;100339.47;;;23.09;57.14
36260;BME280;22296;50.824;5.644;2023-09-19T09:15:08;100329.44;;;23.11;56.95
36260;BME280;22296;50.824;5.644;2023-09-19T09:17:39;100335.88;;;23.12;56.92
36260;BME280;22296;50.824;5.644;2023-09-19T09:20:06;100321.81;;;23.12;56.69
36260;BME280;22296;50.824;5.644;2023-09-19T09:22:35;100328.63;;;23.11;56.22
36260;BME280;22296;50.824;5.644;2023-09-19T09:25:06;100326.25;;;23.13;56.32
36260;BME280;22296;50.824;5.644;2023-09-19T09:27:33;100325.47;;;23.16;56.04
36260;BME280;22296;50.824;5.644;2023-09-19T09:30:00;100325.84;;;23.14;56.00
36260;BME280;22296;50.824;5.644;2023-09-19T09:32:28;100325.47;;;23.16;56.01
36260;BME280;22296;50.824;5.644;2023-09-19T09:34:57;100320.66;;;23.16;56.28
36260;BME280;22296;50.824;5.644;2023-09-19T09:37:28;100321.41;;;23.13;56.33
36260;BME280;22296;50.824;5.644;2023-09-19T09:39:59;100310.13;;;23.06;56.29
36260;BME280;22296;50.824;5.644;2023-09-19T09:42:45;100328.53;;;23.00;56.20
36260;BME280;22296;50.824;5.644;2023-09-19T09:45:17;100331.72;;;22.95;56.28
36260;BME280;22296;50.824;5.644;2023-09-19T09:47:47;100335.28;;;22.92;56.05
36260;BME280;22296;50.824;5.644;2023-09-19T09:50:26;100335.66;;;22.91;56.04
36260;BME280;22296;50.824;5.644;2023-09-19T09:53:19;100330.81;;;22.88;55.88
36260;BME280;22296;50.824;5.644;2023-09-19T09:58:25;100328.34;;;22.83;55.74
36260;BME280;22296;50.824;5.644;2023-09-19T10:00:56;100320.31;;;22.81;55.74
36260;BME280;22296;50.824;5.644;2023-09-19T10:03:37;100319.88;;;22.79;55.52
36260;BME280;22296;50.824;5.644;2023-09-19T10:06:12;100312.66;;;22.78;55.61
36260;BME280;22296;50.824;5.644;2023-09-19T10:09:02;100311.44;;;22.76;55.60
36260;BME280;22296;50.824;5.644;2023-09-19T10:12:03;100304.94;;;22.72;55.80
36260;BME280;22296;50.824;5.644;2023-09-19T10:14:31;100300.91;;;22.69;55.61
36260;BME280;22296;50.824;5.644;2023-09-19T10:17:02;100303.31;;;22.67;55.54
36260;BME280;22296;50.824;5.644;2023-09-19T10:19:42;100305.69;;;22.65;55.53
36260;BME280;22296;50.824;5.644;2023-09-19T10:22:14;100308.13;;;22.66;55.45
36260;BME280;22296;50.824;5.644;2023-09-19T10:24:48;100302.41;;;22.63;55.96
36260;BME280;22296;50.824;5.644;2023-09-19T10:27:29;100299.19;;;22.61;55.49
36260;BME280;22296;50.824;5.644;2023-09-19T10:29:57;100299.19;;;22.61;55.77
36260;BME280;22296;50.824;5.644;2023-09-19T10:32:28;100303.19;;;22.60;55.54
36260;BME280;22296;50.824;5.644;2023-09-19T10:35:01;100293.56;;;22.61;55.52
36260;BME280;22296;50.824;5.644;2023-09-19T10:37:32;100296.75;;;22.59;55.62
36260;BME280;22296;50.824;5.644;2023-09-19T10:40:00;100300.38;;;22.60;55.52
36260;BME280;22296;50.824;5.644;2023-09-19T10:42:28;100305.59;;;22.58;55.57
36260;BME280;22296;50.824;5.644;2023-09-19T10:44:57;100309.56;;;22.57;55.67
36260;BME280;22296;50.824;5.644;2023-09-19T10:47:26;100308.75;;;22.56;55.49
36260;BME280;22296;50.824;5.644;2023-09-19T10:49:53;100301.53;;;22.55;55.83
36260;BME280;22296;50.824;5.644;2023-09-19T10:52:23;100304.72;;;22.54;55.81
36260;BME280;22296;50.824;5.644;2023-09-19T10:54:54;100307.53;;;22.54;55.43
36260;BME280;22296;50.824;5.644;2023-09-19T10:57:25;100304.72;;;22.54;55.87
36260;BME280;22296;50.824;5.644;2023-09-19T11:00:05;100308.94;;;22.70;56.10
36260;BME280;22296;50.824;5.644;2023-09-19T11:03:23;100303.50;;;22.88;55.55
36260;BME280;22296;50.824;5.644;2023-09-19T11:08:56;100312.44;;;22.97;55.17
36260;BME280;22296;50.824;5.644;2023-09-19T11:11:44;100299.66;;;23.03;54.63
36260;BME280;22296;50.824;5.644;2023-09-19T11:30:43;100288.88;;;23.16;54.19
36260;BME280;22296;50.824;5.644;2023-09-19T11:33:27;100296.94;;;23.17;54.66
36260;BME280;22296;50.824;5.644;2023-09-19T11:46:27;100274.47;;;23.21;54.44
36260;BME280;22296;50.824;5.644;2023-09-19T11:49:05;100268.88;;;23.24;54.01
36260;BME280;22296;50.824;5.644;2023-09-19T11:51:40;100270.50;;;23.25;53.78
36260;BME280;22296;50.824;5.644;2023-09-19T11:54:13;100270.13;;;23.27;54.02
36260;BME280;22296;50.824;5.644;2023-09-19T11:56:45;100268.44;;;23.22;53.99
36260;BME280;22296;50.824;5.644;2023-09-19T11:59:31;100277.97;;;23.07;53.85
36260;BME280;22296;50.824;5.644;2023-09-19T12:02:06;100275.50;;;23.02;54.43
36260;BME280;22296;50.824;5.644;2023-09-19T12:07:12;100273.91;;;23.01;54.54
36260;BME280;22296;50.824;5.644;2023-09-19T12:09:44;100276.28;;;22.99;54.39
36260;BME280;22296;50.824;5.644;2023-09-19T12:12:22;100278.72;;;23.01;54.35
36260;BME280;22296;50.824;5.644;2023-09-19T12:14:50;100275.09;;;23.00;54.18
36260;BME280;22296;50.824;5.644;2023-09-19T12:17:17;100277.91;;;23.00;54.16
36260;BME280;22296;50.824;5.644;2023-09-19T12:19:53;100277.09;;;23.00;54.19
36260;BME280;22296;50.824;5.644;2023-09-19T12:22:20;100270.25;;;22.97;54.40
36260;BME280;22296;50.824;5.644;2023-09-19T12:24:47;100275.06;;;22.97;54.31
36260;BME280;22296;50.824;5.644;2023-09-19T12:27:15;100258.59;;;22.95;54.61
36260;BME280;22296;50.824;5.644;2023-09-19T12:29:43;100264.22;;;22.95;54.55
36260;BME280;22296;50.824;5.644;2023-09-19T12:32:11;100251.34;;;22.94;54.66
36260;BME280;22296;50.824;5.644;2023-09-19T12:34:38;100240.09;;;22.94;54.73
36260;BME280;22296;50.824;5.644;2023-09-19T12:37:15;100253.75;;;22.92;54.67
36260;BME280;22296;50.824;5.644;2023-09-19T12:39:51;100252.13;;;22.91;54.61
36260;BME280;22296;50.824;5.644;2023-09-19T12:42:24;100256.94;;;22.91;54.74
36260;BME280;22296;50.824;5.644;2023-09-19T12:44:51;100247.69;;;22.90;54.66
36260;BME280;22296;50.824;5.644;2023-09-19T12:47:29;100242.22;;;23.04;54.39
36260;BME280;22296;50.824;5.644;2023-09-19T12:50:12;100247.06;;;23.11;54.45
36260;BME280;22296;50.824;5.644;2023-09-19T12:52:51;100239.50;;;23.18;54.01
36260;BME280;22296;50.824;5.644;2023-09-19T12:55:32;100240.31;;;23.22;54.23
36260;BME280;22296;50.824;5.644;2023-09-19T13:00:39;100249.19;;;23.24;54.21
36260;BME280;22296;50.824;5.644;2023-09-19T13:03:14;100252.00;;;23.24;54.00
36260;BME280;22296;50.824;5.644;2023-09-19T13:05:55;100253.63;;;23.29;53.90
36260;BME280;22296;50.824;5.644;2023-09-19T13:08:28;100245.19;;;23.29;53.81
36260;BME280;22296;50.824;5.644;2023-09-19T13:11:06;100255.63;;;23.28;53.96
36260;BME280;22296;50.824;5.644;2023-09-19T13:13:34;100257.19;;;23.22;53.71
36260;BME280;22296;50.824;5.644;2023-09-19T13:16:02;100265.94;;;23.10;53.81
36260;BME280;22296;50.824;5.644;2023-09-19T13:18:48;100274.31;;;23.03;54.09
36260;BME280;22296;50.824;5.644;2023-09-19T13:21:27;100272.28;;;23.00;54.04
36260;BME280;22296;50.824;5.644;2023-09-19T13:23:56;100273.06;;;22.97;53.75
36260;BME280;22296;50.824;5.644;2023-09-19T13:26:45;100266.63;;;22.97;53.92
36260;BME280;22296;50.824;5.644;2023-09-19T13:29:12;100261.81;;;22.97;54.28
36260;BME280;22296;50.824;5.644;2023-09-19T13:31:40;100271.44;;;22.96;53.94
36260;BME280;22296;50.824;5.644;2023-09-19T13:34:08;100271.03;;;22.94;54.03
36260;BME280;22296;50.824;5.644;2023-09-19T13:36:36;100272.66;;;22.95;54.54
36260;BME280;22296;50.824;5.644;2023-09-19T13:39:03;100257.94;;;23.12;54.08
36260;BME280;22296;50.824;5.644;2023-09-19T13:41:31;100267.19;;;23.16;54.25
36260;BME280;22296;50.824;5.644;2023-09-19T13:43:59;100269.22;;;23.19;53.83
36260;BME280;22296;50.824;5.644;2023-09-19T13:46:25;100261.22;;;23.21;53.73
36260;BME280;22296;50.824;5.644;2023-09-19T13:48:54;100247.56;;;23.23;53.51
36260;BME280;22296;50.824;5.644;2023-09-19T13:51:26;100247.56;;;23.23;53.88
36260;BME280;22296;50.824;5.644;2023-09-19T13:53:52;100247.59;;;23.27;53.59
36260;BME280;22296;50.824;5.644;2023-09-19T13:56:20;100256.44;;;23.29;53.93
36260;BME280;22296;50.824;5.644;2023-09-19T13:58:47;100250.84;;;23.33;53.49
36260;BME280;22296;50.824;5.644;2023-09-19T14:01:14;100248.84;;;23.33;53.67
36260;BME280;22296;50.824;5.644;2023-09-19T14:03:41;100248.03;;;23.33;53.59
36260;BME280;22296;50.824;5.644;2023-09-19T14:06:13;100242.81;;;23.35;53.58